Time;durP1;ratioP1;P1;durP2;ratioP2;P2;SDS_P1;SDS_P2;PMS_P1;PMS_P2;Temp;Humidity;BMP_temperature;BMP_pressure;BME280_temperature;BME280_humidity;BME280_pressure;Samples;Min_cycle;Max_cycle;Signal;HPM_P1;HPM_P2
2023/12/17 00:01:41;;;;;;;21.40;19.50;;;;;;;;;;5039938;28;20076;-80
2023/12/17 00:04:12;;;;;;;20.08;18.48;;;;;;;;;;5042261;28;20049;-76
2023/12/17 00:06:43;;;;;;;26.35;24.50;;;;;;;;;;5046780;28;20041;-77
2023/12/17 00:09:13;;;;;;;22.35;20.80;;;;;;;;;;5062503;28;20045;-77
2023/12/17 00:11:44;;;;;;;18.90;17.65;;;;;;;;;;5062172;28;20510;-77
2023/12/17 00:14:18;;;;;;;18.02;16.52;;;;;;;;;;5061451;28;21092;-74
2023/12/17 00:16:49;;;;;;;20.33;18.63;;;;;;;;;;5061314;28;20412;-77
2023/12/17 00:19:19;;;;;;;18.73;17.30;;;;;;;;;;5061675;28;20074;-76
2023/12/17 00:21:50;;;;;;;17.70;16.52;;;;;;;;;;5061186;28;20053;-77
2023/12/17 00:24:21;;;;;;;18.98;17.38;;;;;;;;;;5061541;28;21103;-78
2023/12/17 00:26:54;;;;;;;22.65;20.95;;;;;;;;;;5060865;28;20044;-77
2023/12/17 00:29:25;;;;;;;19.40;17.92;;;;;;;;;;5061729;28;20052;-77
2023/12/17 00:31:55;;;;;;;22.52;20.90;;;;;;;;;;5061722;28;20055;-78
2023/12/17 00:34:30;;;;;;;19.73;18.00;;;;;;;;;;5059460;28;20059;-76
2023/12/17 00:37:00;;;;;;;22.75;20.80;;;;;;;;;;5061971;28;20048;-77
2023/12/17 00:39:31;;;;;;;24.63;22.52;;;;;;;;;;5062035;28;20875;-77
2023/12/17 00:42:01;;;;;;;24.10;22.50;;;;;;;;;;5061754;28;20044;-78
2023/12/17 00:44:32;;;;;;;20.77;18.95;;;;;;;;;;5062186;28;20048;-78
2023/12/17 00:47:03;;;;;;;26.08;24.25;;;;;;;;;;5061693;28;20052;-77
2023/12/17 00:49:34;;;;;;;19.35;17.63;;;;;;;;;;5061361;28;20055;-77
2023/12/17 00:52:05;;;;;;;24.92;22.63;;;;;;;;;;5061284;28;20055;-80
2023/12/17 00:54:35;;;;;;;18.02;16.75;;;;;;;;;;5062130;28;20082;-76
2023/12/17 00:57:06;;;;;;;29.30;27.40;;;;;;;;;;5061371;28;20044;-76
2023/12/17 00:59:37;;;;;;;20.48;18.77;;;;;;;;;;5061047;28;20052;-77
2023/12/17 01:02:08;;;;;;;18.83;17.73;;;;;;;;;;5059681;28;20067;-75
2023/12/17 01:04:41;;;;;;;18.98;17.77;;;;;;;;;;5060978;28;20420;-75
2023/12/17 01:07:12;;;;;;;23.38;21.45;;;;;;;;;;5061470;28;20064;-76
2023/12/17 01:09:42;;;;;;;28.40;26.40;;;;;;;;;;5061519;28;20044;-75
2023/12/17 01:12:12;;;;;;;27.50;25.55;;;;;;;;;;5060274;28;20056;-77
2023/12/17 01:14:43;;;;;;;29.90;28.05;;;;;;;;;;5061329;28;20048;-75
2023/12/17 01:17:14;;;;;;;30.98;28.92;;;;;;;;;;5061570;28;20045;-75
2023/12/17 01:19:45;;;;;;;60.80;56.88;;;;;;;;;;5061283;28;20055;-75
2023/12/17 01:22:16;;;;;;;52.28;48.20;;;;;;;;;;5062497;28;20520;-76
2023/12/17 01:24:49;;;;;;;46.78;43.53;;;;;;;;;;5062461;28;20044;-77
2023/12/17 01:27:20;;;;;;;56.85;52.47;;;;;;;;;;5062053;28;20051;-77
2023/12/17 01:29:50;;;;;;;65.85;61.50;;;;;;;;;;5062750;28;20427;-74
2023/12/17 01:32:21;;;;;;;67.38;62.28;;;;;;;;;;5061053;28;20041;-76
2023/12/17 01:34:51;;;;;;;70.78;66.40;;;;;;;;;;5062187;28;20065;-77
2023/12/17 01:37:22;;;;;;;42.42;39.25;;;;;;;;;;5063574;28;20519;-76
2023/12/17 01:39:53;;;;;;;34.15;31.88;;;;;;;;;;5062111;28;20044;-77
2023/12/17 01:42:24;;;;;;;33.30;31.05;;;;;;;;;;5061633;28;20052;-76
2023/12/17 01:44:54;;;;;;;29.98;27.50;;;;;;;;;;5063708;28;20702;-75
2023/12/17 01:47:25;;;;;;;25.90;23.95;;;;;;;;;;5065714;28;20726;-75
2023/12/17 01:49:56;;;;;;;23.77;21.85;;;;;;;;;;5065628;28;20056;-75
2023/12/17 01:52:28;;;;;;;24.83;23.13;;;;;;;;;;5065059;28;20044;-77
2023/12/17 01:54:58;;;;;;;23.73;21.50;;;;;;;;;;5064698;28;20059;-78
2023/12/17 01:57:29;;;;;;;23.30;21.77;;;;;;;;;;5064701;28;20811;-76
2023/12/17 02:00:01;;;;;;;32.60;30.30;;;;;;;;;;5065644;28;20044;-75
2023/12/17 02:02:32;;;;;;;30.15;28.05;;;;;;;;;;5064847;28;21143;-74
2023/12/17 02:05:05;;;;;;;45.65;42.70;;;;;;;;;;5066100;28;20040;-76
2023/12/17 02:07:36;;;;;;;31.17;29.00;;;;;;;;;;5064391;28;20045;-76
2023/12/17 02:10:08;;;;;;;28.20;26.60;;;;;;;;;;5064731;28;20044;-75
2023/12/17 02:12:39;;;;;;;27.25;25.23;;;;;;;;;;5064001;28;20048;-76
2023/12/17 02:15:10;;;;;;;29.25;26.95;;;;;;;;;;5064128;28;20052;-76
2023/12/17 02:17:41;;;;;;;36.53;33.97;;;;;;;;;;5065075;28;20051;-76
2023/12/17 02:20:12;;;;;;;32.33;30.25;;;;;;;;;;5064341;28;20052;-76
2023/12/17 02:22:45;;;;;;;38.33;35.30;;;;;;;;;;5063491;28;20052;-76
2023/12/17 02:25:16;;;;;;;34.17;31.73;;;;;;;;;;5064256;28;20041;-75
2023/12/17 02:27:46;;;;;;;25.20;23.42;;;;;;;;;;5063826;28;20529;-75
2023/12/17 02:30:17;;;;;;;30.63;28.35;;;;;;;;;;5063904;28;20045;-77
2023/12/17 02:32:47;;;;;;;26.73;25.02;;;;;;;;;;5064594;28;20044;-74
2023/12/17 02:35:18;;;;;;;28.30;26.33;;;;;;;;;;5064892;28;20048;-77
2023/12/17 02:37:52;;;;;;;23.15;21.30;;;;;;;;;;5064612;28;20055;-76
2023/12/17 02:40:22;;;;;;;27.20;25.38;;;;;;;;;;5064331;28;20045;-76
2023/12/17 02:42:52;;;;;;;28.90;26.52;;;;;;;;;;5063879;28;20060;-77
2023/12/17 02:45:23;;;;;;;31.40;29.35;;;;;;;;;;5063747;28;20047;-76
2023/12/17 02:47:53;;;;;;;42.75;39.63;;;;;;;;;;5063398;28;20048;-74
2023/12/17 02:50:24;;;;;;;30.02;28.23;;;;;;;;;;5063351;28;20044;-75
2023/12/17 02:52:55;;;;;;;32.95;30.55;;;;;;;;;;5064070;28;20052;-76
2023/12/17 02:55:25;;;;;;;31.38;29.42;;;;;;;;;;5062118;28;20059;-74
2023/12/17 02:57:55;;;;;;;25.67;23.95;;;;;;;;;;5062657;28;20789;-76
2023/12/17 03:00:26;;;;;;;27.92;25.05;;;;;;;;;;5063338;28;20480;-75
2023/12/17 03:02:57;;;;;;;28.40;25.90;;;;;;;;;;5063771;28;20048;-77
2023/12/17 03:05:28;;;;;;;21.95;20.27;;;;;;;;;;5063703;28;20048;-76
2023/12/17 03:07:58;;;;;;;56.67;52.72;;;;;;;;;;5063767;28;20518;-76
2023/12/17 03:10:30;;;;;;;21.88;20.02;;;;;;;;;;5063483;28;20051;-75
2023/12/17 03:13:01;;;;;;;21.10;19.65;;;;;;;;;;5063612;28;20044;-77
2023/12/17 03:15:32;;;;;;;22.58;20.88;;;;;;;;;;5063020;28;20045;-75
2023/12/17 03:18:03;;;;;;;22.90;21.50;;;;;;;;;;5063562;28;20048;-75
2023/12/17 03:20:34;;;;;;;23.63;21.77;;;;;;;;;;5063873;28;20040;-76
2023/12/17 03:23:05;;;;;;;25.13;23.38;;;;;;;;;;5062936;28;20727;-76
2023/12/17 03:25:36;;;;;;;24.50;22.80;;;;;;;;;;5063617;28;20041;-77
2023/12/17 03:28:06;;;;;;;25.77;23.52;;;;;;;;;;5062434;28;20044;-75
2023/12/17 03:30:37;;;;;;;27.42;25.52;;;;;;;;;;5063626;28;20048;-77
2023/12/17 03:33:11;;;;;;;23.85;21.75;;;;;;;;;;5062334;28;20072;-75
2023/12/17 03:35:44;;;;;;;24.40;22.75;;;;;;;;;;5062642;28;20048;-77
2023/12/17 03:38:14;;;;;;;23.98;22.42;;;;;;;;;;5063033;28;20059;-76
2023/12/17 03:40:45;;;;;;;24.92;23.10;;;;;;;;;;5062829;28;20486;-75
2023/12/17 03:43:15;;;;;;;25.67;23.88;;;;;;;;;;5061778;28;20056;-76
2023/12/17 03:45:46;;;;;;;25.52;23.55;;;;;;;;;;5062044;28;20048;-75
2023/12/17 03:48:17;;;;;;;34.60;32.08;;;;;;;;;;5062402;28;20052;-74
2023/12/17 03:50:49;;;;;;;30.05;27.67;;;;;;;;;;5062471;28;20044;-72
2023/12/17 03:53:18;;;;;;;34.75;32.30;;;;;;;;;;5062775;28;20045;-73
2023/12/17 03:55:52;;;;;;;31.73;29.70;;;;;;;;;;5063051;28;20048;-74
2023/12/17 03:58:22;;;;;;;30.50;28.73;;;;;;;;;;5045384;28;20411;-75
2023/12/17 04:00:53;;;;;;;30.52;28.60;;;;;;;;;;5063077;28;20056;-77
2023/12/17 04:03:23;;;;;;;34.38;32.15;;;;;;;;;;5062274;28;20499;-76
2023/12/17 04:05:54;;;;;;;34.72;32.53;;;;;;;;;;5062127;28;20040;-77
2023/12/17 04:08:25;;;;;;;31.52;29.40;;;;;;;;;;5059325;28;20056;-77
2023/12/17 04:10:56;;;;;;;28.75;26.27;;;;;;;;;;5061927;28;20056;-75
2023/12/17 04:13:27;;;;;;;28.67;26.45;;;;;;;;;;5062919;28;20044;-77
2023/12/17 04:15:58;;;;;;;28.20;26.38;;;;;;;;;;5061678;28;20415;-76
2023/12/17 04:18:28;;;;;;;25.25;23.42;;;;;;;;;;5062254;28;20040;-75
2023/12/17 04:21:00;;;;;;;29.48;27.55;;;;;;;;;;5062195;28;20045;-75
2023/12/17 04:23:31;;;;;;;36.75;33.83;;;;;;;;;;5062231;28;20056;-75
2023/12/17 04:26:02;;;;;;;30.77;28.20;;;;;;;;;;5062291;28;20044;-76
2023/12/17 04:28:33;;;;;;;33.65;30.48;;;;;;;;;;5061655;28;20048;-76
2023/12/17 04:31:04;;;;;;;28.27;26.40;;;;;;;;;;5062215;28;20048;-75
2023/12/17 04:33:34;;;;;;;30.67;28.05;;;;;;;;;;5060876;28;20426;-75
2023/12/17 04:36:05;;;;;;;29.30;27.27;;;;;;;;;;5059904;28;20779;-76
2023/12/17 04:38:36;;;;;;;29.77;27.17;;;;;;;;;;5062245;28;20048;-76
2023/12/17 04:41:08;;;;;;;31.13;28.80;;;;;;;;;;5061225;28;20049;-75
2023/12/17 04:43:38;;;;;;;29.88;27.77;;;;;;;;;;5061517;28;20044;-75
2023/12/17 04:46:09;;;;;;;32.35;29.80;;;;;;;;;;5061984;28;20075;-76
2023/12/17 04:48:40;;;;;;;33.80;31.42;;;;;;;;;;5061348;28;20083;-75
2023/12/17 04:51:11;;;;;;;38.55;35.53;;;;;;;;;;5061134;28;20048;-75
2023/12/17 04:53:40;;;;;;;31.10;28.63;;;;;;;;;;5061285;28;20040;-76
2023/12/17 04:56:12;;;;;;;34.55;31.67;;;;;;;;;;5061606;28;20040;-75
2023/12/17 04:58:43;;;;;;;40.70;38.08;;;;;;;;;;5062050;28;20048;-77
2023/12/17 05:01:14;;;;;;;39.28;36.28;;;;;;;;;;5061370;28;20064;-76
2023/12/17 05:03:44;;;;;;;36.92;34.15;;;;;;;;;;5061484;28;20056;-76
2023/12/17 05:06:15;;;;;;;32.83;30.75;;;;;;;;;;5062268;28;20049;-76
2023/12/17 05:08:46;;;;;;;35.45;32.60;;;;;;;;;;5061225;28;20055;-75
2023/12/17 05:11:17;;;;;;;37.13;34.67;;;;;;;;;;5062188;28;20052;-75
2023/12/17 05:13:47;;;;;;;33.45;30.92;;;;;;;;;;5061556;28;20075;-75
2023/12/17 05:16:17;;;;;;;37.35;35.03;;;;;;;;;;5062333;28;20071;-75
2023/12/17 05:18:48;;;;;;;42.17;39.20;;;;;;;;;;5061434;28;20045;-77
2023/12/17 05:21:19;;;;;;;33.80;31.25;;;;;;;;;;5065782;28;20056;-75
2023/12/17 05:23:50;;;;;;;39.30;36.30;;;;;;;;;;5065152;28;20049;-74
2023/12/17 05:26:20;;;;;;;36.65;34.20;;;;;;;;;;5064011;28;20060;-75
2023/12/17 05:28:51;;;;;;;35.90;33.70;;;;;;;;;;5065214;28;20045;-76
2023/12/17 05:31:22;;;;;;;34.60;32.22;;;;;;;;;;5065179;28;20048;-76
2023/12/17 05:33:53;;;;;;;35.40;32.65;;;;;;;;;;5063981;28;20415;-75
2023/12/17 05:36:23;;;;;;;29.83;28.13;;;;;;;;;;5065201;28;20040;-76
2023/12/17 05:38:53;;;;;;;36.40;33.88;;;;;;;;;;5065250;28;20049;-77
2023/12/17 05:41:25;;;;;;;29.85;27.52;;;;;;;;;;5065360;28;20045;-76
2023/12/17 05:43:56;;;;;;;30.85;28.55;;;;;;;;;;5064718;28;20597;-77
2023/12/17 05:46:28;;;;;;;35.53;33.15;;;;;;;;;;5064851;28;20119;-76
2023/12/17 05:48:59;;;;;;;31.13;28.80;;;;;;;;;;5064888;28;20044;-75
2023/12/17 05:51:30;;;;;;;31.85;29.58;;;;;;;;;;5065320;28;20048;-75
2023/12/17 05:54:01;;;;;;;33.00;30.20;;;;;;;;;;5065224;28;20071;-76
2023/12/17 05:56:37;;;;;;;33.72;31.80;;;;;;;;;;5066067;28;20060;-76
2023/12/17 05:59:08;;;;;;;34.08;32.05;;;;;;;;;;5064720;28;20040;-75
2023/12/17 06:01:38;;;;;;;29.13;27.30;;;;;;;;;;5062796;28;20063;-76
2023/12/17 06:04:09;;;;;;;30.92;28.60;;;;;;;;;;5062889;28;20057;-76
2023/12/17 06:06:40;;;;;;;29.02;26.70;;;;;;;;;;5064840;28;20052;-76
2023/12/17 06:09:10;;;;;;;24.67;23.30;;;;;;;;;;5062852;28;20063;-75
2023/12/17 06:11:42;;;;;;;28.60;26.80;;;;;;;;;;5065399;28;20049;-75
2023/12/17 06:14:12;;;;;;;31.40;28.63;;;;;;;;;;5063143;28;20055;-77
2023/12/17 06:16:43;;;;;;;26.60;24.75;;;;;;;;;;5063999;28;20058;-75
2023/12/17 06:19:13;;;;;;;27.70;25.40;;;;;;;;;;5064768;28;20056;-77
2023/12/17 06:21:44;;;;;;;22.55;21.00;;;;;;;;;;5064472;28;20403;-76
2023/12/17 06:24:15;;;;;;;25.27;23.65;;;;;;;;;;5064814;28;20059;-77
2023/12/17 06:26:45;;;;;;;23.17;21.58;;;;;;;;;;5065186;28;20071;-76
2023/12/17 06:29:15;;;;;;;21.63;20.05;;;;;;;;;;5064458;28;20059;-78
2023/12/17 06:31:46;;;;;;;25.80;23.45;;;;;;;;;;5063532;28;20083;-77
2023/12/17 06:34:17;;;;;;;20.38;18.95;;;;;;;;;;5064062;28;20041;-76
2023/12/17 06:36:47;;;;;;;21.20;19.80;;;;;;;;;;5063601;28;20055;-77
2023/12/17 06:39:17;;;;;;;20.38;19.05;;;;;;;;;;5062885;28;20052;-76
2023/12/17 06:41:48;;;;;;;20.45;18.67;;;;;;;;;;5064084;28;20049;-75
2023/12/17 06:44:19;;;;;;;19.58;18.17;;;;;;;;;;5063835;28;20434;-74
2023/12/17 06:46:50;;;;;;;17.23;16.02;;;;;;;;;;5063711;28;20049;-78
2023/12/17 06:49:20;;;;;;;18.92;17.73;;;;;;;;;;5064060;28;20044;-76
2023/12/17 06:51:50;;;;;;;21.40;19.73;;;;;;;;;;5064039;28;20628;-77
2023/12/17 06:54:22;;;;;;;21.08;19.67;;;;;;;;;;5064156;28;20045;-77
2023/12/17 06:56:52;;;;;;;23.60;21.48;;;;;;;;;;5064015;28;20048;-77
2023/12/17 06:59:23;;;;;;;24.13;22.38;;;;;;;;;;5063964;28;20044;-75
2023/12/17 07:01:53;;;;;;;19.38;18.08;;;;;;;;;;5063581;28;20063;-75
2023/12/17 07:04:24;;;;;;;23.60;21.92;;;;;;;;;;5062075;28;20531;-76
2023/12/17 07:06:55;;;;;;;20.17;18.95;;;;;;;;;;5063801;28;20661;-77
2023/12/17 07:09:24;;;;;;;18.33;16.88;;;;;;;;;;5064441;28;20535;-75
2023/12/17 07:11:55;;;;;;;21.40;19.85;;;;;;;;;;5063941;28;20138;-75
2023/12/17 07:14:26;;;;;;;21.52;20.13;;;;;;;;;;5064165;28;20056;-76
2023/12/17 07:16:57;;;;;;;19.13;17.95;;;;;;;;;;5062751;28;20047;-75
2023/12/17 07:19:28;;;;;;;21.35;19.88;;;;;;;;;;5062945;28;20106;-75
2023/12/17 07:22:01;;;;;;;18.70;17.17;;;;;;;;;;5061022;28;20055;-75
2023/12/17 07:24:31;;;;;;;16.23;15.23;;;;;;;;;;5063584;28;20053;-76
2023/12/17 07:27:03;;;;;;;20.80;19.23;;;;;;;;;;5063518;28;20091;-75
2023/12/17 07:29:34;;;;;;;14.50;13.48;;;;;;;;;;5063071;28;20048;-75
2023/12/17 07:32:04;;;;;;;19.55;17.38;;;;;;;;;;5062684;28;20055;-75
2023/12/17 07:34:34;;;;;;;17.15;15.93;;;;;;;;;;5063198;28;20052;-76
2023/12/17 07:37:07;;;;;;;16.73;15.75;;;;;;;;;;5062855;28;20419;-76
2023/12/17 07:39:38;;;;;;;20.10;18.40;;;;;;;;;;5062802;28;20055;-77
2023/12/17 07:42:08;;;;;;;19.05;17.67;;;;;;;;;;5063403;28;20405;-75
2023/12/17 07:44:38;;;;;;;21.63;20.05;;;;;;;;;;5062885;28;20056;-77
2023/12/17 07:47:10;;;;;;;22.85;21.33;;;;;;;;;;5064302;28;21245;-75
2023/12/17 07:49:41;;;;;;;21.85;19.55;;;;;;;;;;5063024;28;20036;-76
2023/12/17 07:52:12;;;;;;;22.95;20.92;;;;;;;;;;5063072;28;20037;-75
2023/12/17 07:54:42;;;;;;;22.13;20.42;;;;;;;;;;5063251;28;20059;-77
2023/12/17 07:57:12;;;;;;;22.90;21.08;;;;;;;;;;5062518;28;20496;-76
2023/12/17 07:59:44;;;;;;;19.75;18.08;;;;;;;;;;5062109;28;20044;-76
2023/12/17 08:02:15;;;;;;;23.35;21.75;;;;;;;;;;5060538;28;20064;-75
2023/12/17 08:04:47;;;;;;;25.20;23.27;;;;;;;;;;5062490;28;20051;-75
2023/12/17 08:07:18;;;;;;;23.80;21.55;;;;;;;;;;5062504;28;20072;-76
2023/12/17 08:09:49;;;;;;;26.38;24.42;;;;;;;;;;5063308;28;20060;-75
2023/12/17 08:12:20;;;;;;;23.45;21.92;;;;;;;;;;5062349;28;20048;-78
2023/12/17 08:14:50;;;;;;;24.95;23.58;;;;;;;;;;5062956;28;20045;-76
2023/12/17 08:17:21;;;;;;;21.90;20.50;;;;;;;;;;5063020;28;20051;-74
2023/12/17 08:19:51;;;;;;;20.42;18.83;;;;;;;;;;5062241;28;20056;-76
2023/12/17 08:22:22;;;;;;;20.90;19.48;;;;;;;;;;5063211;28;20052;-82
2023/12/17 08:24:53;;;;;;;12.88;11.98;;;;;;;;;;5063251;28;20593;-75
2023/12/17 08:27:23;;;;;;;12.07;11.30;;;;;;;;;;5062595;28;20052;-74
2023/12/17 08:29:54;;;;;;;18.30;17.20;;;;;;;;;;5060044;28;20059;-76
2023/12/17 08:32:31;;;;;;;22.70;21.20;;;;;;;;;;5061905;28;20048;-75
2023/12/17 08:35:03;;;;;;;18.50;17.25;;;;;;;;;;5062161;28;20522;-75
2023/12/17 08:37:34;;;;;;;19.15;17.98;;;;;;;;;;5061831;28;20048;-75
2023/12/17 08:40:05;;;;;;;18.13;16.63;;;;;;;;;;5061890;28;20408;-74
2023/12/17 08:42:36;;;;;;;16.73;15.60;;;;;;;;;;5061473;28;20107;-75
2023/12/17 08:45:08;;;;;;;19.10;17.30;;;;;;;;;;5061381;28;20055;-75
2023/12/17 08:47:38;;;;;;;20.60;14.35;;;;;;;;;;5061817;28;20049;-75
2023/12/17 08:50:10;;;;;;;23.15;21.27;;;;;;;;;;5061801;28;20040;-75
2023/12/17 08:52:41;;;;;;;15.18;13.73;;;;;;;;;;5061786;28;20052;-75
2023/12/17 08:55:12;;;;;;;17.10;13.00;;;;;;;;;;5060866;28;20049;-76
2023/12/17 08:57:42;;;;;;;16.65;15.35;;;;;;;;;;5061550;28;20431;-76
2023/12/17 09:00:13;;;;;;;14.45;13.27;;;;;;;;;;5043431;28;20413;-76
2023/12/17 09:02:45;;;;;;;14.32;12.93;;;;;;;;;;5061569;28;20048;-74
2023/12/17 09:05:15;;;;;;;15.85;14.25;;;;;;;;;;5061111;28;20063;-77
2023/12/17 09:07:45;;;;;;;16.95;15.43;;;;;;;;;;5061571;28;20048;-76
2023/12/17 09:10:16;;;;;;;19.15;17.17;;;;;;;;;;5061497;28;20696;-77
2023/12/17 09:12:47;;;;;;;20.55;18.90;;;;;;;;;;5046107;28;20044;-76
2023/12/17 09:15:17;;;;;;;20.77;19.48;;;;;;;;;;5041155;28;20859;-75
2023/12/17 09:17:48;;;;;;;17.00;15.75;;;;;;;;;;5040946;28;20041;-75
2023/12/17 09:20:19;;;;;;;22.05;20.23;;;;;;;;;;5041618;28;20388;-75
2023/12/17 09:22:52;;;;;;;15.00;13.60;;;;;;;;;;5041099;28;20045;-75
2023/12/17 09:25:23;;;;;;;19.92;18.02;;;;;;;;;;5039879;28;20067;-75
2023/12/17 09:27:54;;;;;;;19.42;17.58;;;;;;;;;;5040624;28;20629;-77
2023/12/17 09:30:24;;;;;;;21.70;19.42;;;;;;;;;;5041152;28;20045;-76
2023/12/17 09:32:55;;;;;;;24.58;22.95;;;;;;;;;;5041627;28;20060;-79
2023/12/17 09:35:25;;;;;;;23.63;22.08;;;;;;;;;;5041048;28;20424;-76
2023/12/17 09:37:56;;;;;;;16.13;14.98;;;;;;;;;;5041021;28;20393;-76
2023/12/17 09:40:26;;;;;;;19.25;17.73;;;;;;;;;;5039850;28;20508;-75
2023/12/17 09:42:57;;;;;;;21.60;19.83;;;;;;;;;;5041013;28;20048;-75
2023/12/17 09:45:28;;;;;;;18.58;17.50;;;;;;;;;;5040968;28;20048;-75
2023/12/17 09:47:59;;;;;;;19.20;17.27;;;;;;;;;;5040628;28;20049;-75
2023/12/17 09:50:29;;;;;;;16.65;15.63;;;;;;;;;;5041936;28;20061;-76
2023/12/17 09:53:00;;;;;;;19.23;18.00;;;;;;;;;;5041741;28;20061;-75
2023/12/17 09:55:32;;;;;;;25.33;23.83;;;;;;;;;;5041528;28;20415;-79
2023/12/17 09:58:04;;;;;;;30.52;28.08;;;;;;;;;;5041753;28;20045;-76
2023/12/17 10:00:34;;;;;;;26.52;24.88;;;;;;;;;;5042280;28;20530;-75
2023/12/17 10:03:05;;;;;;;24.02;22.70;;;;;;;;;;5042009;28;20507;-75
2023/12/17 10:05:36;;;;;;;23.33;21.58;;;;;;;;;;5040505;28;20524;-77
2023/12/17 10:08:06;;;;;;;26.45;24.52;;;;;;;;;;5045534;28;20049;-78
2023/12/17 10:10:37;;;;;;;26.92;25.30;;;;;;;;;;5045685;28;20049;-77
2023/12/17 10:13:07;;;;;;;24.70;23.10;;;;;;;;;;5045850;28;20053;-75
2023/12/17 10:15:39;;;;;;;28.67;27.05;;;;;;;;;;5045806;28;20491;-76
2023/12/17 10:18:10;;;;;;;28.23;25.90;;;;;;;;;;5046420;28;20064;-76
2023/12/17 10:20:40;;;;;;;22.88;21.27;;;;;;;;;;5043794;28;20052;-75
2023/12/17 10:23:10;;;;;;;21.58;20.27;;;;;;;;;;5045601;28;20049;-76
2023/12/17 10:25:42;;;;;;;20.02;18.35;;;;;;;;;;5045070;28;20053;-77
2023/12/17 10:28:14;;;;;;;23.52;21.75;;;;;;;;;;5044877;28;20049;-78
2023/12/17 10:30:47;;;;;;;13.88;12.98;;;;;;;;;;5044911;28;20052;-78
2023/12/17 10:33:26;;;;;;;14.30;13.38;;;;;;;;;;5045230;28;20045;-80
2023/12/17 10:35:58;;;;;;;17.25;15.98;;;;;;;;;;5045082;28;20059;-77
2023/12/17 10:38:30;;;;;;;14.48;13.48;;;;;;;;;;5045368;28;20056;-75
2023/12/17 10:41:02;;;;;;;13.38;12.35;;;;;;;;;;5045161;28;20419;-77
2023/12/17 10:43:34;;;;;;;15.00;13.85;;;;;;;;;;5045340;28;20056;-75
2023/12/17 10:46:04;;;;;;;20.25;18.67;;;;;;;;;;5045081;28;20052;-76
2023/12/17 10:48:36;;;;;;;13.63;12.38;;;;;;;;;;5045416;28;20048;-77
2023/12/17 10:51:09;;;;;;;11.45;10.60;;;;;;;;;;5043174;28;20069;-76
2023/12/17 10:53:41;;;;;;;15.07;13.98;;;;;;;;;;5044011;28;20399;-73
2023/12/17 10:56:14;;;;;;;12.18;11.05;;;;;;;;;;5043943;28;20053;-73
2023/12/17 10:58:47;;;;;;;14.95;14.05;;;;;;;;;;5041855;28;20053;-74
2023/12/17 11:01:18;;;;;;;13.70;12.52;;;;;;;;;;5043846;28;20057;-74
2023/12/17 11:03:49;;;;;;;13.93;12.70;;;;;;;;;;5043525;28;20037;-73
2023/12/17 11:06:20;;;;;;;13.23;12.25;;;;;;;;;;5043836;28;20509;-75
2023/12/17 11:08:52;;;;;;;16.30;15.40;;;;;;;;;;5042247;28;20057;-73
2023/12/17 11:11:23;;;;;;;12.15;10.88;;;;;;;;;;5042944;28;20503;-78
2023/12/17 11:13:53;;;;;;;11.10;10.02;;;;;;;;;;5043282;28;20071;-78
2023/12/17 11:16:25;;;;;;;13.35;12.43;;;;;;;;;;5043170;28;20055;-73
2023/12/17 11:19:05;;;;;;;13.32;11.95;;;;;;;;;;5043002;28;20056;-75
2023/12/17 11:21:37;;;;;;;13.10;12.30;;;;;;;;;;5043430;28;20405;-73
2023/12/17 11:24:07;;;;;;;12.55;11.38;;;;;;;;;;5043327;28;20053;-73
2023/12/17 11:26:43;;;;;;;14.35;13.10;;;;;;;;;;5042348;28;20099;-72
2023/12/17 11:29:36;;;;;;;11.45;10.55;;;;;;;;;;5042549;28;20592;-73
2023/12/17 11:32:07;;;;;;;13.52;12.63;;;;;;;;;;5042280;28;20063;-75
2023/12/17 11:34:39;;;;;;;8.75;8.00;;;;;;;;;;5042721;28;20041;-73
2023/12/17 11:37:11;;;;;;;11.05;10.05;;;;;;;;;;5042893;28;20522;-78
2023/12/17 11:39:43;;;;;;;7.22;6.60;;;;;;;;;;5043263;28;20389;-74
2023/12/17 11:42:19;;;;;;;11.25;10.38;;;;;;;;;;5042475;28;20056;-74
2023/12/17 11:44:52;;;;;;;7.22;6.43;;;;;;;;;;5042804;28;20049;-74
2023/12/17 11:47:26;;;;;;;6.97;6.40;;;;;;;;;;5043070;28;20060;-73
2023/12/17 11:50:04;;;;;;;6.15;5.47;;;;;;;;;;5043136;28;20790;-76
2023/12/17 11:52:35;;;;;;;7.85;7.25;;;;;;;;;;5042958;28;20048;-76
2023/12/17 11:55:06;;;;;;;8.75;5.82;;;;;;;;;;5041522;28;20397;-74
2023/12/17 11:57:37;;;;;;;7.40;6.65;;;;;;;;;;5041771;28;20049;-73
2023/12/17 12:00:13;;;;;;;8.00;7.03;;;;;;;;;;5024977;28;20542;-74
2023/12/17 12:02:47;;;;;;;8.60;8.10;;;;;;;;;;5042404;28;20134;-75
2023/12/17 12:05:18;;;;;;;6.35;5.75;;;;;;;;;;5042853;28;20571;-74
2023/12/17 12:07:53;;;;;;;7.57;7.05;;;;;;;;;;5048578;28;20049;-74
2023/12/17 12:10:24;;;;;;;6.97;6.38;;;;;;;;;;5043200;28;20072;-74
2023/12/17 12:13:03;;;;;;;7.30;6.70;;;;;;;;;;5042541;28;20056;-75
2023/12/17 12:15:35;;;;;;;6.93;6.45;;;;;;;;;;5043469;28;20098;-75
2023/12/17 12:18:05;;;;;;;9.10;8.35;;;;;;;;;;5042187;28;20075;-75
2023/12/17 12:20:38;;;;;;;9.82;8.93;;;;;;;;;;5040035;28;20420;-75
2023/12/17 12:23:09;;;;;;;8.10;7.30;;;;;;;;;;5053082;28;20045;-75
2023/12/17 12:25:40;;;;;;;9.20;8.07;;;;;;;;;;5062917;28;20048;-77
2023/12/17 12:28:20;;;;;;;8.95;6.97;;;;;;;;;;5062596;28;20404;-75
2023/12/17 12:30:53;;;;;;;7.45;6.93;;;;;;;;;;5061310;28;20049;-74
2023/12/17 12:33:26;;;;;;;7.18;6.47;;;;;;;;;;5062114;28;20048;-74
2023/12/17 12:36:10;;;;;;;8.25;7.65;;;;;;;;;;5061818;28;20067;-74
2023/12/17 12:38:40;;;;;;;8.10;7.40;;;;;;;;;;5062165;28;20056;-76
2023/12/17 12:41:12;;;;;;;9.45;8.65;;;;;;;;;;5062863;28;20059;-73
2023/12/17 12:43:43;;;;;;;6.97;6.45;;;;;;;;;;5062753;28;20044;-74
2023/12/17 12:46:13;;;;;;;11.13;8.40;;;;;;;;;;5050351;28;20048;-77
2023/12/17 12:48:43;;;;;;;7.43;6.78;;;;;;;;;;5041084;28;20103;-75
2023/12/17 12:51:14;;;;;;;9.95;9.15;;;;;;;;;;5041055;28;20613;-74
2023/12/17 12:53:48;;;;;;;8.25;6.47;;;;;;;;;;5042161;28;20048;-74
2023/12/17 12:56:19;;;;;;;7.22;6.72;;;;;;;;;;5041062;28;20049;-74
2023/12/17 12:58:51;;;;;;;8.95;8.25;;;;;;;;;;5041324;28;20053;-74
2023/12/17 13:01:21;;;;;;;8.23;6.13;;;;;;;;;;5041606;28;20578;-74
2023/12/17 13:03:52;;;;;;;6.35;5.88;;;;;;;;;;5039597;28;20045;-79
2023/12/17 13:06:24;;;;;;;8.82;8.20;;;;;;;;;;5040882;28;20415;-75
2023/12/17 13:08:54;;;;;;;9.82;9.00;;;;;;;;;;5041571;28;20055;-78
2023/12/17 13:11:24;;;;;;;7.43;6.82;;;;;;;;;;5041332;28;20053;-74
2023/12/17 13:13:56;;;;;;;13.63;12.52;;;;;;;;;;5040498;28;20037;-75
2023/12/17 13:16:26;;;;;;;21.30;20.10;;;;;;;;;;5042067;28;20053;-79
2023/12/17 13:18:57;;;;;;;17.20;16.13;;;;;;;;;;5041347;28;20049;-74
2023/12/17 13:21:39;;;;;;;18.27;17.15;;;;;;;;;;5041682;28;20045;-74
2023/12/17 13:24:10;;;;;;;4.95;4.47;;;;;;;;;;5041737;28;20045;-76
2023/12/17 13:26:41;;;;;;;7.75;6.65;;;;;;;;;;5040978;28;20053;-75
2023/12/17 13:29:12;;;;;;;7.00;6.50;;;;;;;;;;5041460;28;20044;-77
2023/12/17 13:31:43;;;;;;;9.10;8.57;;;;;;;;;;5039649;28;20517;-74
2023/12/17 13:34:17;;;;;;;6.15;5.25;;;;;;;;;;5040635;28;20045;-75
2023/12/17 13:36:47;;;;;;;5.53;5.13;;;;;;;;;;5041499;28;20052;-74
2023/12/17 13:39:18;;;;;;;8.70;8.02;;;;;;;;;;5041203;28;20052;-74
2023/12/17 13:41:48;;;;;;;7.57;6.95;;;;;;;;;;5044975;28;20049;-81
2023/12/17 13:44:30;;;;;;;5.47;4.95;;;;;;;;;;5050295;28;20049;-75
2023/12/17 13:47:01;;;;;;;6.72;6.20;;;;;;;;;;5053203;28;20048;-75
2023/12/17 13:49:36;;;;;;;6.82;6.32;;;;;;;;;;5055443;28;20036;-79
2023/12/17 13:52:07;;;;;;;6.60;6.10;;;;;;;;;;5051147;28;20049;-76
2023/12/17 13:54:38;;;;;;;8.38;7.68;;;;;;;;;;5052810;28;20052;-75
2023/12/17 13:57:09;;;;;;;7.72;7.03;;;;;;;;;;5055623;28;20040;-74
2023/12/17 13:59:39;;;;;;;8.10;7.60;;;;;;;;;;5061290;28;20430;-75
2023/12/17 14:02:09;;;;;;;5.82;5.32;;;;;;;;;;5064937;28;20056;-78
2023/12/17 14:04:40;;;;;;;6.10;5.70;;;;;;;;;;5063399;28;20048;-75
2023/12/17 14:07:12;;;;;;;9.88;9.13;;;;;;;;;;5061905;28;20067;-74
2023/12/17 14:09:42;;;;;;;7.18;6.65;;;;;;;;;;5064283;28;20514;-76
2023/12/17 14:12:12;;;;;;;7.55;6.97;;;;;;;;;;5064808;28;20052;-74
2023/12/17 14:14:43;;;;;;;7.72;7.22;;;;;;;;;;5064389;28;20067;-75
2023/12/17 14:17:17;;;;;;;8.93;7.72;;;;;;;;;;5064949;28;20055;-74
2023/12/17 14:19:49;;;;;;;8.38;7.55;;;;;;;;;;5064672;28;20055;-75
2023/12/17 14:22:19;;;;;;;8.90;8.05;;;;;;;;;;5065154;28;21103;-76
2023/12/17 14:24:51;;;;;;;7.32;6.72;;;;;;;;;;5062796;28;20538;-78
2023/12/17 14:27:22;;;;;;;7.57;6.97;;;;;;;;;;5063050;28;20857;-78
2023/12/17 14:29:53;;;;;;;7.20;6.60;;;;;;;;;;5063979;28;20045;-75
2023/12/17 14:32:23;;;;;;;7.32;6.63;;;;;;;;;;5064142;28;20098;-74
2023/12/17 14:34:57;;;;;;;9.93;9.13;;;;;;;;;;5064641;28;20048;-78
2023/12/17 14:37:27;;;;;;;8.07;7.35;;;;;;;;;;5063540;28;20051;-75
2023/12/17 14:39:58;;;;;;;14.68;13.57;;;;;;;;;;5063182;28;20677;-75
2023/12/17 14:42:29;;;;;;;19.05;18.05;;;;;;;;;;5064244;28;20048;-74
2023/12/17 14:45:01;;;;;;;19.85;18.40;;;;;;;;;;5064457;28;20418;-74